메인 페이지
METAR-TAF:

METAR-TAF

공항 :

잭슨빌, 플로리다, 미국

위도: 30-13-07N, 경도: 081-52-36W, 고도: 25m

현재 날씨관측

예보는 47분 전, 14:50시(UTC)에 발표되었습니다.
5kt
온도 29°C
습도 74%
기압 1018 hPa
시정: 16.1km
고도 3800ft 상공 구름 많음

METAR: KVQQ 301450Z 27005KT 10SM BKN038 29/24 A3005

시각: 11:37 (15:37 UTC)

예보

예보는 2 시간 5분 전, 13:32시(UTC)에 발표되었습니다.
예보 대상 시간: 30일 14시부터 31일 12시까지 (UTC)
서남서6kt
시정: 10km
고도 500ft 상공 구름 많음
30일 1430시부터 (UTC)
서남서6kt
시정: 10km
고도 1000ft 상공 구름 보통
30일 1600시부터 (UTC)
8kt
시정: 10km
고도 2500ft 상공 구름 보통
고도 4000ft 상공 구름 많음
시계 내 소나기
30일 1900시부터 (UTC)
남서8kt
시정: 10km
고도 4000ft 상공 구름 많음, 적란운.
고도 8000ft 상공 구름 많음
시계 내 뇌우
31일 0300시부터 (UTC)
4kt
시정: 10km
고도 2500ft 상공 구름 보통
고도 4000ft 상공 구름 보통
고도 20000ft 상공 구름 많음

TAF: KVQQ 301332Z 3014/3112 24006KT P6SM BKN005 FM301430 24006KT P6SM SCT010 FM301600 26008KT P6SM VCSH SCT025 BKN040 FM301900 23008KT P6SM VCTS BKN040CB BKN080 FM310300 27004KT P6SM SCT025 SCT040 BKN200

4,000개 이상의 공항 관측 자료 및 예보 (METAR 및 TAF 보고).

지도상에서 검색 가능한 기상관측소가 노란 점과 빨간 점으로 표시되어 있습니다.

기상관측소 명을 보려면 표시 위로 마우스를 이동하세요.

날씨 관측과 예보를 보려면 클릭하세요.

지도 변경 : 확대하려면 엑스 표시가 있는 녹색 버튼, 축소하려면 빼기 표시가 있는 녹색 버튼, 다음 페이지의 지도를 보려면 녹색 화살표를 클릭하세요.


METAR-TAF: